Time;durP1;ratioP1;P1;durP2;ratioP2;P2;SDS_P1;SDS_P2;PMS_P1;PMS_P2;Temp;Humidity;BMP_temperature;BMP_pressure;BME280_temperature;BME280_humidity;BME280_pressure;Samples;Min_cycle;Max_cycle;Signal;HPM_P1;HPM_P2
2021/07/23 00:01:51;;;;;;;15.60;11.23;;;23.40;81.30;;;;;;4979289;28;20210;-78
2021/07/23 00:04:16;;;;;;;17.17;12.33;;;23.50;81.20;;;;;;4982969;28;20258;-78
2021/07/23 00:06:42;;;;;;;18.57;11.57;;;23.60;79.90;;;;;;4998203;28;20724;-77
2021/07/23 00:09:08;;;;;;;14.60;12.03;;;23.40;80.80;;;;;;4980339;28;20204;-78
2021/07/23 00:11:34;;;;;;;18.40;11.90;;;23.30;81.40;;;;;;5000579;28;20181;-80
2021/07/23 00:13:59;;;;;;;16.23;12.40;;;23.10;82.00;;;;;;4981956;28;20271;-78
2021/07/23 00:16:25;;;;;;;18.80;12.60;;;23.00;82.80;;;;;;5000440;28;20185;-76
2021/07/23 00:18:51;;;;;;;16.60;11.20;;;23.00;83.20;;;;;;4980232;28;20276;-76
2021/07/23 00:21:16;;;;;;;14.90;12.30;;;23.00;83.30;;;;;;4975922;28;20599;-75
2021/07/23 00:23:42;;;;;;;15.63;12.00;;;23.20;82.90;;;;;;4996316;28;20256;-76
2021/07/23 00:26:12;;;;;;;16.50;12.30;;;23.00;83.60;;;;;;4997178;28;20192;-74
2021/07/23 00:28:38;;;;;;;16.13;12.63;;;23.10;83.70;;;;;;4991338;28;20204;-76
2021/07/23 00:31:04;;;;;;;13.33;11.73;;;23.10;83.90;;;;;;4994370;28;20524;-74
2021/07/23 00:33:30;;;;;;;15.27;11.50;;;23.00;84.50;;;;;;4996991;28;20903;-73
2021/07/23 00:35:55;;;;;;;14.17;12.00;;;23.20;84.20;;;;;;4992274;28;20213;-74
2021/07/23 00:38:21;;;;;;;16.13;12.30;;;23.30;84.00;;;;;;4996895;28;20221;-74
2021/07/23 00:40:47;;;;;;;17.40;12.17;;;23.20;84.40;;;;;;4994768;28;20199;-74
2021/07/23 00:43:15;;;;;;;14.43;10.87;;;22.90;85.10;;;;;;4992067;28;20685;-75
2021/07/23 00:45:41;;;;;;;14.73;12.00;;;22.90;85.50;;;;;;4995725;28;20209;-74
2021/07/23 00:48:07;;;;;;;13.83;12.07;;;23.00;85.60;;;;;;4996027;28;20479;-74
2021/07/23 00:50:33;;;;;;;13.77;11.57;;;23.00;85.30;;;;;;4994576;28;20193;-75
2021/07/23 00:53:00;;;;;;;15.57;11.63;;;23.10;84.80;;;;;;4979565;28;20557;-72
2021/07/23 00:55:26;;;;;;;13.50;10.87;;;22.80;85.80;;;;;;4994816;28;20498;-74
2021/07/23 00:57:54;;;;;;;15.27;11.43;;;22.70;85.70;;;;;;4976592;28;20437;-75
2021/07/23 01:00:20;;;;;;;16.63;11.23;;;22.80;86.10;;;;;;4991351;28;20452;-74
2021/07/23 01:02:52;;;;;;;13.20;11.50;;;22.80;86.30;;;;;;4993733;28;20955;-73
2021/07/23 01:05:18;;;;;;;15.40;11.13;;;22.80;86.10;;;;;;4991166;28;20974;-74
2021/07/23 01:07:44;;;;;;;14.10;11.53;;;22.80;86.10;;;;;;4995758;28;20483;-74
2021/07/23 01:10:10;;;;;;;13.60;11.30;;;22.70;86.20;;;;;;4993083;28;20197;-74
2021/07/23 01:12:37;;;;;;;13.87;11.27;;;22.70;86.50;;;;;;4994013;28;20440;-75
2021/07/23 01:15:04;;;;;;;14.90;12.33;;;22.70;86.70;;;;;;4995108;28;20250;-74
2021/07/23 01:17:30;;;;;;;16.20;11.30;;;22.70;86.90;;;;;;4994990;28;20444;-74
2021/07/23 01:20:03;;;;;;;14.97;11.27;;;22.70;86.70;;;;;;4992249;28;20494;-75
2021/07/23 01:22:30;;;;;;;11.00;9.77;;;22.80;86.60;;;;;;4996536;28;20961;-77
2021/07/23 01:24:57;;;;;;;17.37;12.47;;;22.70;87.00;;;;;;4993814;28;20550;-72
2021/07/23 01:27:27;;;;;;;11.33;9.87;;;22.60;86.80;;;;;;5001743;28;20827;-74
2021/07/23 01:30:16;;;;;;;14.50;10.27;;;22.60;87.00;;;;;;4998198;28;20518;-74
2021/07/23 01:32:42;;;;;;;14.67;10.70;;;22.60;87.10;;;;;;4998633;28;20451;-75
2021/07/23 01:35:09;;;;;;;11.73;10.50;;;22.70;87.30;;;;;;4998872;28;20459;-75
2021/07/23 01:37:35;;;;;;;12.77;10.80;;;22.50;87.50;;;;;;4997319;28;20267;-73
2021/07/23 01:40:01;;;;;;;14.37;11.97;;;22.40;88.30;;;;;;4994528;28;20432;-75
2021/07/23 01:42:28;;;;;;;13.53;10.17;;;22.20;89.70;;;;;;4997153;28;20455;-73
2021/07/23 01:44:54;;;;;;;14.63;10.90;;;22.30;89.50;;;;;;4999834;28;20459;-74
2021/07/23 01:47:20;;;;;;;13.20;10.90;;;22.30;89.70;;;;;;5000123;28;20460;-75
2021/07/23 01:49:46;;;;;;;13.80;11.40;;;22.40;89.50;;;;;;5000126;28;20735;-75
2021/07/23 01:52:14;;;;;;;14.03;11.63;;;22.50;89.40;;;;;;5004017;28;20231;-75
2021/07/23 01:54:40;;;;;;;15.53;12.80;;;22.50;89.40;;;;;;4999593;28;20467;-75
2021/07/23 01:57:05;;;;;;;20.37;11.73;;;22.20;90.00;;;;;;5000067;28;20975;-74
2021/07/23 01:59:31;;;;;;;15.40;11.10;;;22.30;90.40;;;;;;5002455;28;20203;-75
2021/07/23 02:01:57;;;;;;;15.77;11.37;;;22.30;90.40;;;;;;4999082;28;20265;-73
2021/07/23 02:04:23;;;;;;;15.17;11.50;;;22.30;90.40;;;;;;5000097;28;20703;-75
2021/07/23 02:06:49;;;;;;;12.60;11.27;;;22.30;90.40;;;;;;4999419;28;20209;-74
2021/07/23 02:09:15;;;;;;;13.27;10.90;;;22.30;90.60;;;;;;4999620;28;20473;-74
2021/07/23 02:11:41;;;;;;;13.93;10.63;;;22.40;90.70;;;;;;5018514;28;20437;-73
2021/07/23 02:14:07;;;;;;;14.37;11.20;;;22.30;91.20;;;;;;5025175;28;20205;-73
2021/07/23 02:16:36;;;;;;;13.37;10.77;;;22.30;90.90;;;;;;5019939;28;20192;-73
2021/07/23 02:19:03;;;;;;;13.87;11.03;;;22.30;91.10;;;;;;5017170;28;20442;-72
2021/07/23 02:21:29;;;;;;;13.77;11.47;;;22.20;91.40;;;;;;5017380;28;20452;-73
2021/07/23 02:23:55;;;;;;;15.30;11.07;;;22.20;91.40;;;;;;5003636;28;20456;-76
2021/07/23 02:26:22;;;;;;;14.43;11.70;;;22.20;91.60;;;;;;4999562;28;20459;-76
2021/07/23 02:28:49;;;;;;;12.80;11.43;;;22.20;91.60;;;;;;4998341;28;20928;-73
2021/07/23 02:31:18;;;;;;;14.20;11.27;;;22.10;91.70;;;;;;4997190;28;20443;-73
2021/07/23 02:33:44;;;;;;;13.10;10.13;;;22.00;92.00;;;;;;5000039;28;20482;-74
2021/07/23 02:36:11;;;;;;;12.67;10.23;;;22.00;92.10;;;;;;4995948;28;20448;-75
2021/07/23 02:38:37;;;;;;;12.50;10.10;;;21.70;92.60;;;;;;4997246;28;20444;-75
2021/07/23 02:41:03;;;;;;;15.70;10.30;;;21.60;93.20;;;;;;4997090;28;20453;-74
2021/07/23 02:43:28;;;;;;;13.67;11.80;;;21.60;93.50;;;;;;4995965;28;20948;-74
2021/07/23 02:45:54;;;;;;;13.30;11.20;;;21.60;93.70;;;;;;4999027;28;20216;-75
2021/07/23 02:48:20;;;;;;;14.37;12.20;;;21.80;93.60;;;;;;4996980;28;20242;-76
2021/07/23 02:50:46;;;;;;;13.20;10.00;;;21.90;93.40;;;;;;5001231;28;20463;-75
2021/07/23 02:53:12;;;;;;;15.80;10.93;;;21.90;93.40;;;;;;4996281;28;20185;-75
2021/07/23 02:55:37;;;;;;;12.93;11.00;;;21.70;93.90;;;;;;4983044;28;20467;-74
2021/07/23 02:58:03;;;;;;;14.93;10.63;;;21.80;93.80;;;;;;4997467;28;20193;-75
2021/07/23 03:00:29;;;;;;;13.80;10.70;;;21.60;94.10;;;;;;4995289;28;20193;-74
2021/07/23 03:02:55;;;;;;;13.13;10.70;;;21.50;94.70;;;;;;4997546;28;20444;-75
2021/07/23 03:05:21;;;;;;;15.50;9.50;;;21.60;94.70;;;;;;4993650;28;20459;-76
2021/07/23 03:07:53;;;;;;;12.00;10.37;;;21.60;95.00;;;;;;4992706;28;20232;-74
2021/07/23 03:10:18;;;;;;;15.23;11.13;;;21.80;94.50;;;;;;4996007;28;20189;-74
2021/07/23 03:12:44;;;;;;;12.80;10.40;;;21.70;94.70;;;;;;4977619;28;20523;-75
2021/07/23 03:15:11;;;;;;;11.13;9.90;;;21.70;94.80;;;;;;4994647;28;20209;-74
2021/07/23 03:17:37;;;;;;;13.23;10.13;;;21.70;94.70;;;;;;4993957;28;20191;-74
2021/07/23 03:20:03;;;;;;;12.30;9.97;;;21.60;95.10;;;;;;4993541;28;20448;-75
2021/07/23 03:22:29;;;;;;;14.30;10.83;;;21.70;95.10;;;;;;4997632;28;20197;-75
2021/07/23 03:24:55;;;;;;;13.00;10.67;;;21.70;95.00;;;;;;4979378;28;20873;-73
2021/07/23 03:27:22;;;;;;;13.43;10.60;;;21.70;95.10;;;;;;4993086;28;20217;-74
2021/07/23 03:29:48;;;;;;;14.77;11.00;;;21.60;95.20;;;;;;4979793;28;20447;-74
2021/07/23 03:32:14;;;;;;;14.10;11.13;;;21.70;95.40;;;;;;5000818;28;20444;-76
2021/07/23 03:34:39;;;;;;;11.93;10.53;;;21.60;95.80;;;;;;4979588;28;20449;-74
2021/07/23 03:37:05;;;;;;;13.50;11.40;;;21.60;95.80;;;;;;4994686;28;20450;-74
2021/07/23 03:39:31;;;;;;;14.90;10.73;;;21.60;96.00;;;;;;4997080;28;20239;-73
2021/07/23 03:41:57;;;;;;;13.83;10.60;;;21.70;95.90;;;;;;4993542;28;20196;-75
2021/07/23 03:44:25;;;;;;;13.33;10.23;;;21.70;95.80;;;;;;4998289;28;20244;-73
2021/07/23 03:46:51;;;;;;;12.50;10.53;;;21.40;96.40;;;;;;4995324;28;20196;-73
2021/07/23 03:49:17;;;;;;;11.47;10.30;;;21.40;96.60;;;;;;4999046;28;20984;-74
2021/07/23 03:51:42;;;;;;;12.87;11.03;;;21.50;96.80;;;;;;4986104;28;20247;-74
2021/07/23 03:54:08;;;;;;;13.50;11.27;;;21.60;96.60;;;;;;4997186;28;20262;-75
2021/07/23 03:56:34;;;;;;;14.50;10.43;;;21.60;96.40;;;;;;4979373;28;20194;-75
2021/07/23 03:59:00;;;;;;;12.73;9.73;;;21.60;96.60;;;;;;4999628;28;20869;-75
2021/07/23 04:01:25;;;;;;;12.80;10.80;;;21.40;97.10;;;;;;4995344;28;20297;-75
2021/07/23 04:03:51;;;;;;;12.90;10.77;;;21.40;97.30;;;;;;4983970;28;20194;-74
2021/07/23 04:06:17;;;;;;;14.00;10.80;;;21.20;97.90;;;;;;4997397;28;20209;-74
2021/07/23 04:08:43;;;;;;;13.93;11.30;;;21.30;98.00;;;;;;4993488;28;20232;-73
2021/07/23 04:11:16;;;;;;;11.80;10.10;;;21.50;97.70;;;;;;4995805;28;21626;-74
2021/07/23 04:13:42;;;;;;;13.53;10.40;;;21.40;97.40;;;;;;4997326;28;20583;-73
2021/07/23 04:16:09;;;;;;;15.07;10.00;;;21.50;97.90;;;;;;4981266;28;20486;-74
2021/07/23 04:18:35;;;;;;;13.90;10.20;;;21.50;97.50;;;;;;4995881;28;20475;-75
2021/07/23 04:21:07;;;;;;;13.20;10.33;;;21.50;97.50;;;;;;4999135;28;20439;-75
2021/07/23 04:23:33;;;;;;;11.80;10.60;;;21.50;97.40;;;;;;4994597;28;20791;-75
2021/07/23 04:25:58;;;;;;;12.80;11.50;;;21.30;98.20;;;;;;4982529;28;20511;-74
2021/07/23 04:28:24;;;;;;;12.33;10.30;;;21.40;98.20;;;;;;4996896;28;20590;-73
2021/07/23 04:30:50;;;;;;;14.97;11.53;;;21.50;98.10;;;;;;4991681;28;20657;-74
2021/07/23 04:33:16;;;;;;;14.03;10.40;;;21.30;98.20;;;;;;4997418;28;20221;-75
2021/07/23 04:35:41;;;;;;;12.73;10.93;;;21.20;98.90;;;;;;4995483;28;20223;-75
2021/07/23 04:38:07;;;;;;;15.30;11.07;;;21.30;98.80;;;;;;4994830;28;20204;-75
2021/07/23 04:40:33;;;;;;;12.90;9.30;;;21.10;99.20;;;;;;4993351;28;20236;-75
2021/07/23 04:42:58;;;;;;;13.23;10.63;;;21.00;99.40;;;;;;4998121;28;20641;-74
2021/07/23 04:45:24;;;;;;;15.47;10.83;;;20.90;99.80;;;;;;4997031;28;20933;-75
2021/07/23 04:47:50;;;;;;;14.30;10.97;;;21.00;99.80;;;;;;4994159;28;20222;-74
2021/07/23 04:50:15;;;;;;;13.93;10.47;;;21.10;99.90;;;;;;4995949;28;20208;-74
2021/07/23 04:52:41;;;;;;;11.37;9.60;;;21.00;99.90;;;;;;4995527;28;20232;-74
2021/07/23 04:55:08;;;;;;;13.47;10.70;;;20.80;99.90;;;;;;4993145;28;20214;-74
2021/07/23 04:57:42;;;;;;;11.17;9.97;;;20.80;99.90;;;;;;4995988;28;20197;-74
2021/07/23 05:00:08;;;;;;;11.70;9.90;;;20.90;99.90;;;;;;5000161;28;20443;-74
2021/07/23 05:02:35;;;;;;;11.23;9.50;;;21.10;99.90;;;;;;4998901;28;20455;-73
2021/07/23 05:05:01;;;;;;;14.17;10.30;;;21.20;99.90;;;;;;5001430;28;20566;-73
2021/07/23 05:07:26;;;;;;;11.57;10.10;;;21.20;99.90;;;;;;5001283;28;20575;-76
2021/07/23 05:09:52;;;;;;;14.83;10.30;;;21.20;99.90;;;;;;5000387;28;20193;-76
2021/07/23 05:12:17;;;;;;;14.30;9.57;;;21.30;99.90;;;;;;4998819;28;20273;-73
2021/07/23 05:14:44;;;;;;;13.43;10.93;;;21.10;99.90;;;;;;5000793;28;20665;-73
2021/07/23 05:17:10;;;;;;;13.00;10.07;;;21.40;99.90;;;;;;4998169;28;20201;-74
2021/07/23 05:19:36;;;;;;;14.20;9.63;;;21.30;99.90;;;;;;4998688;28;20460;-73
2021/07/23 05:22:03;;;;;;;11.73;10.50;;;21.30;99.90;;;;;;5000376;28;20512;-74
2021/07/23 05:24:30;;;;;;;13.03;10.40;;;21.20;99.90;;;;;;5004402;28;20990;-74
2021/07/23 05:26:56;;;;;;;11.60;10.13;;;21.20;99.90;;;;;;5001962;28;20485;-75
2021/07/23 05:29:21;;;;;;;11.70;10.50;;;21.10;99.90;;;;;;4991149;28;20444;-75
2021/07/23 05:31:47;;;;;;;12.90;10.50;;;21.30;99.90;;;;;;4998812;28;20296;-75
2021/07/23 05:34:12;;;;;;;14.67;10.43;;;21.30;99.90;;;;;;4997631;28;20708;-74
2021/07/23 05:36:38;;;;;;;13.53;9.90;;;21.20;99.90;;;;;;4998646;28;20197;-74
2021/07/23 05:39:04;;;;;;;10.50;9.40;;;21.30;99.90;;;;;;5002052;28;20200;-75
2021/07/23 05:41:30;;;;;;;12.67;9.57;;;21.50;99.90;;;;;;5007804;28;20722;-73
2021/07/23 05:43:57;;;;;;;13.23;11.10;;;21.50;99.90;;;;;;5001228;28;20593;-73
2021/07/23 05:46:23;;;;;;;14.00;10.57;;;21.50;99.90;;;;;;4992413;28;20894;-75
2021/07/23 05:48:48;;;;;;;12.87;10.90;;;21.50;99.90;;;;;;4976173;28;20481;-75
2021/07/23 05:51:14;;;;;;;20.03;10.90;;;21.40;99.90;;;;;;4995195;28;20209;-74
2021/07/23 05:53:40;;;;;;;15.17;9.90;;;21.50;99.90;;;;;;4997802;28;20314;-75
2021/07/23 05:56:06;;;;;;;18.80;10.80;;;21.50;99.90;;;;;;4989624;28;20229;-74
2021/07/23 05:58:32;;;;;;;14.70;10.23;;;21.70;99.90;;;;;;4987747;28;20276;-74
2021/07/23 06:00:58;;;;;;;15.20;10.10;;;21.80;99.90;;;;;;4989406;28;20531;-75
2021/07/23 06:03:24;;;;;;;13.97;10.20;;;21.80;99.90;;;;;;4989239;28;20498;-74
2021/07/23 06:05:50;;;;;;;15.70;12.43;;;21.90;99.90;;;;;;4987670;28;20256;-74
2021/07/23 06:08:16;;;;;;;15.83;11.70;;;21.90;99.90;;;;;;4985736;28;20484;-75
2021/07/23 06:10:41;;;;;;;13.17;10.57;;;22.00;99.90;;;;;;4971533;28;20513;-74
2021/07/23 06:13:07;;;;;;;11.73;9.50;;;22.10;99.90;;;;;;4989607;28;20200;-75
2021/07/23 06:15:34;;;;;;;14.00;10.37;;;22.10;99.90;;;;;;4988515;28;20226;-75
2021/07/23 06:18:00;;;;;;;11.70;10.20;;;22.10;99.70;;;;;;4989397;28;20189;-75
2021/07/23 06:20:25;;;;;;;12.73;10.37;;;22.10;99.60;;;;;;4993969;28;20525;-75
2021/07/23 06:22:58;;;;;;;13.37;10.70;;;22.20;99.70;;;;;;4997289;28;20185;-74
2021/07/23 06:25:24;;;;;;;12.97;10.57;;;22.10;99.70;;;;;;4993010;28;20228;-74
2021/07/23 06:27:50;;;;;;;16.83;10.80;;;22.20;99.90;;;;;;4993027;28;20477;-75
2021/07/23 06:30:16;;;;;;;13.13;10.83;;;22.20;99.90;;;;;;4992821;28;21087;-74
2021/07/23 06:32:41;;;;;;;14.93;9.90;;;22.20;99.30;;;;;;4991990;28;20292;-74
2021/07/23 06:35:07;;;;;;;14.10;9.70;;;22.10;99.20;;;;;;4974917;28;20486;-74
2021/07/23 06:37:33;;;;;;;14.23;10.50;;;22.10;99.80;;;;;;4992653;28;20197;-73
2021/07/23 06:39:59;;;;;;;14.40;10.43;;;22.10;99.50;;;;;;4992413;28;20444;-75
2021/07/23 06:42:24;;;;;;;13.10;9.13;;;22.20;99.50;;;;;;4989923;28;20288;-75
2021/07/23 06:44:51;;;;;;;14.90;9.90;;;22.20;99.60;;;;;;4993604;28;20419;-76
2021/07/23 06:47:18;;;;;;;12.50;9.50;;;22.20;99.90;;;;;;4993067;28;20216;-75
2021/07/23 06:49:44;;;;;;;13.47;10.40;;;22.30;99.90;;;;;;4988732;28;20455;-76
2021/07/23 06:52:09;;;;;;;11.87;9.73;;;22.40;99.50;;;;;;4991896;28;20437;-75
2021/07/23 06:54:35;;;;;;;12.23;10.03;;;22.50;99.50;;;;;;4989607;28;20330;-75
2021/07/23 06:57:04;;;;;;;13.03;10.00;;;22.40;99.50;;;;;;4991112;28;21020;-76
2021/07/23 06:59:34;;;;;;;11.63;9.23;;;22.40;99.20;;;;;;4988641;28;20190;-75
2021/07/23 07:02:00;;;;;;;14.13;9.13;;;22.50;98.90;;;;;;4988005;28;20512;-76
2021/07/23 07:04:32;;;;;;;14.43;9.80;;;22.60;98.80;;;;;;4990770;28;20566;-74
2021/07/23 07:06:59;;;;;;;11.30;8.73;;;22.60;98.60;;;;;;4989663;28;20460;-76
2021/07/23 07:09:26;;;;;;;11.40;8.93;;;22.60;98.30;;;;;;4991773;28;20484;-77
2021/07/23 07:11:53;;;;;;;13.83;9.03;;;22.70;98.30;;;;;;4988337;28;20923;-75
2021/07/23 07:14:21;;;;;;;10.70;8.60;;;22.70;98.10;;;;;;4993070;28;20455;-74
2021/07/23 07:16:46;;;;;;;13.97;9.13;;;22.80;97.60;;;;;;4990573;28;20954;-75
2021/07/23 07:19:12;;;;;;;12.50;9.50;;;22.90;97.30;;;;;;4991143;28;20444;-75
2021/07/23 07:21:38;;;;;;;12.40;9.50;;;23.00;97.60;;;;;;4989432;28;20315;-74
2021/07/23 07:24:04;;;;;;;11.20;9.20;;;23.00;97.40;;;;;;4987470;28;20221;-75
2021/07/23 07:26:30;;;;;;;14.13;9.80;;;23.00;97.40;;;;;;4988753;28;20454;-75
2021/07/23 07:28:56;;;;;;;10.73;9.27;;;22.90;97.40;;;;;;4990436;28;20476;-74
2021/07/23 07:31:22;;;;;;;13.20;9.20;;;23.00;97.40;;;;;;4988078;28;20241;-74
2021/07/23 07:33:47;;;;;;;9.80;8.80;;;23.00;97.50;;;;;;4989065;28;20194;-74
2021/07/23 07:36:19;;;;;;;14.80;8.53;;;22.90;97.00;;;;;;4986571;28;20217;-75
2021/07/23 07:38:45;;;;;;;11.83;9.77;;;22.90;97.10;;;;;;4989918;28;20193;-75
2021/07/23 07:41:18;;;;;;;11.13;9.13;;;23.10;97.00;;;;;;4992723;28;20439;-76
2021/07/23 07:43:44;;;;;;;10.17;8.60;;;23.20;96.50;;;;;;4997834;28;20787;-75
2021/07/23 07:46:13;;;;;;;10.13;8.63;;;23.20;96.70;;;;;;4997322;28;20953;-75
2021/07/23 07:48:39;;;;;;;13.20;9.67;;;23.20;96.70;;;;;;4999962;28;20471;-76
2021/07/23 07:51:07;;;;;;;13.10;9.37;;;23.20;97.10;;;;;;5023417;28;20444;-75
2021/07/23 07:53:32;;;;;;;14.50;8.63;;;23.20;96.90;;;;;;5022217;28;20185;-76
2021/07/23 07:55:58;;;;;;;10.70;9.37;;;23.40;96.60;;;;;;5017635;28;20471;-76
2021/07/23 07:58:24;;;;;;;12.07;8.70;;;23.40;96.20;;;;;;5012783;28;20205;-77
2021/07/23 08:00:49;;;;;;;9.33;7.60;;;23.50;96.20;;;;;;5004477;28;21050;-75
2021/07/23 08:03:15;;;;;;;10.80;9.10;;;23.50;96.10;;;;;;4990257;28;20189;-75
2021/07/23 08:05:41;;;;;;;9.97;7.80;;;23.60;95.70;;;;;;4990362;28;20221;-74
2021/07/23 08:08:09;;;;;;;13.00;8.37;;;23.60;96.00;;;;;;4988357;28;20239;-76
2021/07/23 08:10:36;;;;;;;11.60;8.33;;;23.60;96.30;;;;;;4992701;28;20181;-75
2021/07/23 08:13:07;;;;;;;12.03;9.23;;;23.80;96.00;;;;;;4988201;28;20506;-75
2021/07/23 08:15:36;;;;;;;10.60;7.90;;;23.70;96.10;;;;;;4973282;28;22125;-75
2021/07/23 08:18:03;;;;;;;10.83;9.07;;;23.70;95.80;;;;;;4987374;28;21038;-75
2021/07/23 08:20:29;;;;;;;12.27;8.80;;;23.80;95.70;;;;;;4979505;28;21154;-75
2021/07/23 08:22:55;;;;;;;11.80;9.63;;;23.80;94.90;;;;;;4987041;28;20459;-76
2021/07/23 08:25:22;;;;;;;14.33;9.03;;;23.90;95.90;;;;;;4967821;28;20556;-75
2021/07/23 08:27:47;;;;;;;10.87;9.70;;;23.90;96.10;;;;;;4986989;28;20979;-74
2021/07/23 08:30:13;;;;;;;14.47;9.10;;;23.90;96.40;;;;;;4986889;28;20429;-75
2021/07/23 08:32:44;;;;;;;16.30;11.93;;;23.90;96.40;;;;;;4989779;28;20247;-75
2021/07/23 08:35:09;;;;;;;10.90;9.57;;;24.00;97.00;;;;;;4984810;28;20465;-75
2021/07/23 08:37:35;;;;;;;15.17;10.77;;;24.00;96.90;;;;;;4986835;28;20428;-75
2021/07/23 08:40:04;;;;;;;11.23;9.17;;;24.00;96.60;;;;;;4983754;28;20471;-76
2021/07/23 08:42:33;;;;;;;11.43;9.07;;;24.10;96.50;;;;;;4985235;28;20193;-75
2021/07/23 08:45:00;;;;;;;10.83;8.73;;;24.20;96.90;;;;;;4990853;28;21381;-76
2021/07/23 08:47:26;;;;;;;19.20;9.50;;;24.10;97.40;;;;;;4985217;28;20981;-76
2021/07/23 08:49:52;;;;;;;9.73;8.73;;;24.10;97.20;;;;;;4986337;28;20436;-74
2021/07/23 08:52:36;;;;;;;11.03;8.90;;;24.30;96.40;;;;;;4987359;28;20197;-76
2021/07/23 08:55:02;;;;;;;11.07;8.50;;;24.40;95.90;;;;;;4985760;28;20579;-75
2021/07/23 08:57:28;;;;;;;11.60;9.20;;;24.40;96.20;;;;;;4985637;28;21097;-75
2021/07/23 08:59:54;;;;;;;12.07;10.77;;;24.50;96.00;;;;;;4975199;28;20487;-73
2021/07/23 09:02:20;;;;;;;11.70;10.07;;;24.50;96.30;;;;;;4986161;28;21061;-75
2021/07/23 09:04:45;;;;;;;12.37;9.43;;;24.60;95.10;;;;;;4986929;28;20311;-74
2021/07/23 09:07:14;;;;;;;11.50;9.77;;;24.70;95.20;;;;;;4990092;28;20196;-75
2021/07/23 09:09:43;;;;;;;9.73;7.70;;;24.70;95.40;;;;;;4985421;28;20269;-75
2021/07/23 09:12:09;;;;;;;11.07;9.90;;;24.80;94.80;;;;;;4969185;28;20952;-74
2021/07/23 09:14:35;;;;;;;11.03;8.30;;;24.90;95.10;;;;;;4972912;28;20542;-74
2021/07/23 09:17:02;;;;;;;17.07;8.87;;;24.80;94.30;;;;;;4983702;28;20463;-74
2021/07/23 09:19:28;;;;;;;10.40;8.70;;;24.80;94.20;;;;;;4985349;28;20822;-74
2021/07/23 09:21:59;;;;;;;12.73;8.53;;;24.90;93.40;;;;;;4987174;28;20275;-74
2021/07/23 09:24:25;;;;;;;12.00;9.30;;;25.00;93.70;;;;;;4969337;28;21023;-75
2021/07/23 09:26:51;;;;;;;11.77;9.97;;;25.10;93.80;;;;;;4985711;28;20448;-75
2021/07/23 09:29:18;;;;;;;11.30;9.57;;;25.20;93.40;;;;;;4986840;28;20596;-73
2021/07/23 09:32:10;;;;;;;10.40;8.73;;;25.30;93.50;;;;;;4964468;28;20968;-74
2021/07/23 09:34:36;;;;;;;8.30;7.40;;;25.40;92.10;;;;;;4985210;28;20456;-75
2021/07/23 09:37:09;;;;;;;8.60;7.70;;;25.40;90.70;;;;;;4968710;28;20455;-74
2021/07/23 09:39:35;;;;;;;11.07;7.53;;;25.50;90.50;;;;;;4983849;28;20181;-74
2021/07/23 09:42:02;;;;;;;9.70;8.20;;;25.60;90.50;;;;;;4993632;28;20436;-74
2021/07/23 09:44:28;;;;;;;10.57;8.50;;;25.60;90.60;;;;;;4993646;28;20221;-74
2021/07/23 09:46:53;;;;;;;14.00;9.00;;;25.50;90.60;;;;;;4995073;28;20449;-75
2021/07/23 09:49:31;;;;;;;14.83;10.80;;;25.60;90.10;;;;;;4978221;28;20553;-72
2021/07/23 09:52:05;;;;;;;9.07;7.77;;;25.70;90.20;;;;;;4993092;28;20185;-74
2021/07/23 09:54:31;;;;;;;9.13;7.63;;;25.90;90.00;;;;;;4996330;28;20453;-74
2021/07/23 09:57:00;;;;;;;9.70;8.03;;;25.90;86.90;;;;;;4977699;28;20431;-74
2021/07/23 09:59:46;;;;;;;9.57;7.90;;;25.90;87.10;;;;;;4992284;28;20843;-73
2021/07/23 10:02:21;;;;;;;9.97;8.23;;;26.00;87.20;;;;;;4993748;28;20561;-74
2021/07/23 10:05:07;;;;;;;9.57;8.57;;;26.00;84.50;;;;;;4989880;28;20462;-75
2021/07/23 10:07:57;;;;;;;9.53;8.53;;;26.10;84.40;;;;;;4995797;28;20468;-75
2021/07/23 10:10:23;;;;;;;9.43;8.40;;;26.20;84.70;;;;;;4994955;28;20436;-74
2021/07/23 10:12:50;;;;;;;9.90;8.50;;;26.20;86.90;;;;;;4999063;28;20444;-74
2021/07/23 10:15:18;;;;;;;9.70;8.00;;;26.20;87.50;;;;;;4992318;28;20445;-74
2021/07/23 10:17:46;;;;;;;10.60;9.03;;;26.30;88.00;;;;;;4985438;28;20483;-75
2021/07/23 10:20:13;;;;;;;10.17;8.57;;;26.40;87.10;;;;;;4993841;28;20449;-73
2021/07/23 10:22:40;;;;;;;10.43;9.27;;;26.40;87.10;;;;;;4997423;28;20516;-74
2021/07/23 10:25:06;;;;;;;10.10;8.77;;;26.50;86.20;;;;;;4997600;28;21043;-75
2021/07/23 10:27:32;;;;;;;9.73;8.73;;;26.50;85.50;;;;;;4993354;28;20476;-74
2021/07/23 10:29:58;;;;;;;10.20;8.87;;;26.60;86.10;;;;;;4978895;28;20447;-74
2021/07/23 10:32:27;;;;;;;8.73;7.50;;;26.60;85.20;;;;;;4995928;28;20223;-74
2021/07/23 10:34:58;;;;;;;11.13;9.60;;;26.70;85.70;;;;;;4991451;28;20455;-75
2021/07/23 10:37:30;;;;;;;9.73;8.43;;;26.70;84.50;;;;;;4969221;28;20571;-75
2021/07/23 10:40:08;;;;;;;14.13;10.53;;;26.70;85.50;;;;;;4990112;28;20813;-75
2021/07/23 10:42:35;;;;;;;11.50;9.80;;;26.80;84.10;;;;;;4993758;28;20515;-77
2021/07/23 10:45:06;;;;;;;10.40;9.00;;;26.90;85.20;;;;;;4977873;28;20503;-74
2021/07/23 10:47:43;;;;;;;11.00;9.20;;;27.00;83.60;;;;;;5000792;28;20475;-74
2021/07/23 10:50:10;;;;;;;8.63;7.83;;;27.00;83.90;;;;;;4997442;28;20445;-75
2021/07/23 10:52:37;;;;;;;11.50;10.00;;;27.00;83.50;;;;;;4997638;28;20803;-75
2021/07/23 10:55:11;;;;;;;11.30;9.20;;;27.10;83.00;;;;;;4999297;28;20508;-76
2021/07/23 10:57:37;;;;;;;10.53;9.50;;;27.20;82.20;;;;;;4997423;28;20539;-75
2021/07/23 11:00:04;;;;;;;12.37;10.57;;;27.30;80.30;;;;;;4980581;28;20490;-73
2021/07/23 11:02:30;;;;;;;16.17;12.40;;;27.40;83.40;;;;;;4983126;28;21061;-75
2021/07/23 11:05:06;;;;;;;10.00;9.00;;;27.50;83.90;;;;;;4994650;28;20560;-74
2021/07/23 11:07:33;;;;;;;10.10;9.10;;;27.50;81.60;;;;;;4995416;28;20218;-76
2021/07/23 11:09:59;;;;;;;10.00;8.90;;;27.70;81.40;;;;;;4990404;28;20440;-74
2021/07/23 11:12:31;;;;;;;11.47;9.23;;;27.70;81.00;;;;;;4994296;28;20540;-74
2021/07/23 11:15:02;;;;;;;11.17;9.83;;;27.90;81.80;;;;;;4995270;28;20540;-73
2021/07/23 11:17:29;;;;;;;12.30;11.07;;;27.90;79.50;;;;;;4976703;28;20451;-74
2021/07/23 11:19:59;;;;;;;10.13;8.77;;;28.00;79.00;;;;;;4991769;28;20495;-74
2021/07/23 11:22:33;;;;;;;9.37;8.23;;;28.10;78.30;;;;;;4992399;28;20471;-75
2021/07/23 11:25:07;;;;;;;11.73;9.60;;;28.00;77.70;;;;;;4992258;28;20466;-73
2021/07/23 11:27:38;;;;;;;9.83;8.83;;;28.00;76.60;;;;;;4991441;28;20841;-75
2021/07/23 11:30:23;;;;;;;9.40;8.50;;;28.00;77.00;;;;;;4978634;28;20497;-73
2021/07/23 11:32:57;;;;;;;10.93;9.83;;;28.20;75.70;;;;;;4989721;28;20504;-75
2021/07/23 11:35:25;;;;;;;9.53;8.53;;;28.20;77.00;;;;;;4988822;28;20500;-75
2021/07/23 11:37:51;;;;;;;11.27;9.23;;;28.50;76.00;;;;;;4989363;28;21176;-74
2021/07/23 11:40:19;;;;;;;10.53;9.47;;;28.50;74.80;;;;;;4989718;28;20517;-74
2021/07/23 11:42:50;;;;;;;10.10;9.10;;;28.70;75.20;;;;;;4989206;28;20498;-74
2021/07/23 11:45:19;;;;;;;9.73;8.73;;;28.90;74.80;;;;;;4990726;28;20560;-74
2021/07/23 11:47:50;;;;;;;10.37;9.27;;;28.80;70.10;;;;;;4973532;28;20459;-76
2021/07/23 11:50:19;;;;;;;10.47;9.47;;;29.10;72.20;;;;;;4990720;28;20441;-74
2021/07/23 11:52:46;;;;;;;11.00;8.30;;;29.30;72.10;;;;;;4993841;28;20436;-74
2021/07/23 11:55:14;;;;;;;11.37;9.10;;;29.50;69.70;;;;;;4968664;28;20499;-73
2021/07/23 11:57:47;;;;;;;10.87;9.67;;;29.50;68.20;;;;;;4990400;28;20428;-74
2021/07/23 12:00:27;;;;;;;10.60;9.00;;;29.40;70.10;;;;;;4994050;28;21957;-75
2021/07/23 12:02:54;;;;;;;10.93;9.40;;;29.90;71.70;;;;;;4989857;28;20437;-75
2021/07/23 12:05:27;;;;;;;10.63;9.40;;;30.40;70.40;;;;;;4992579;28;20456;-76
2021/07/23 12:07:58;;;;;;;10.90;9.50;;;30.80;70.80;;;;;;4989476;28;20483;-75
2021/07/23 12:10:24;;;;;;;10.07;8.83;;;31.70;68.80;;;;;;4973664;28;20561;-75
2021/07/23 12:12:51;;;;;;;9.97;8.97;;;32.60;66.30;;;;;;4996370;28;20460;-76
2021/07/23 12:15:18;;;;;;;12.80;9.50;;;33.80;60.90;;;;;;4996534;28;20455;-75
2021/07/23 12:17:45;;;;;;;12.40;9.13;;;34.90;59.60;;;;;;4994853;28;20431;-74
2021/07/23 12:20:12;;;;;;;9.90;9.00;;;35.90;58.80;;;;;;4996566;28;20419;-75
2021/07/23 12:22:38;;;;;;;9.30;8.50;;;37.00;56.70;;;;;;4991525;28;20423;-75
2021/07/23 12:25:20;;;;;;;10.17;9.07;;;37.20;55.40;;;;;;4993317;28;20447;-72
2021/07/23 12:27:56;;;;;;;9.93;9.00;;;37.80;52.90;;;;;;4981940;28;20442;-73
2021/07/23 12:30:33;;;;;;;9.00;7.60;;;38.80;52.90;;;;;;4965466;28;20785;-73
2021/07/23 12:33:18;;;;;;;10.27;8.77;;;39.50;50.90;;;;;;4993422;28;20467;-74
2021/07/23 12:35:46;;;;;;;10.00;9.00;;;40.50;48.60;;;;;;4995719;28;20479;-75